Time;durP1;ratioP1;P1;durP2;ratioP2;P2;SDS_P1;SDS_P2;PMS_P1;PMS_P2;Temp;Humidity;BMP_temperature;BMP_pressure;BME280_temperature;BME280_humidity;BME280_pressure;Samples;Min_cycle;Max_cycle;Signal;HPM_P1;HPM_P2
2023/10/12 00:00:24;;;;;;;24.15;5.85;;;;;;;18.90;66.08;100112.47;5027665;28;20133;-63
2023/10/12 00:02:48;;;;;;;15.98;5.07;;;;;;;18.97;65.37;100118.84;5026495;28;20141;-63
2023/10/12 00:05:18;;;;;;;13.23;5.32;;;;;;;19.02;65.30;100121.88;5029064;28;20595;-63
2023/10/12 00:07:46;;;;;;;19.40;4.82;;;;;;;19.04;64.45;100111.88;5027644;28;20085;-63
2023/10/12 00:12:47;;;;;;;8.63;4.50;;;;;;;19.10;64.44;100121.94;5026769;28;20148;-63
2023/10/12 00:15:45;;;;;;;16.23;5.57;;;;;;;19.14;63.28;100117.97;5029657;28;20129;-63
2023/10/12 00:18:08;;;;;;;14.70;4.45;;;;;;;19.25;62.65;100124.03;5027185;28;20472;-62
2023/10/12 00:20:39;;;;;;;20.30;4.53;;;;;;;19.33;61.93;100143.59;5028728;28;20435;-62
2023/10/12 00:23:10;;;;;;;18.15;4.75;;;;;;;19.40;61.40;100125.91;5026232;28;20076;-62
2023/10/12 00:25:46;;;;;;;14.43;4.40;;;;;;;19.44;60.81;100131.78;5028723;28;20154;-61
2023/10/12 00:28:44;;;;;;;12.02;4.10;;;;;;;19.58;59.97;100123.16;5029665;28;20542;-62
2023/10/12 00:31:17;;;;;;;12.07;4.10;;;;;;;19.61;60.04;100119.38;5025122;28;20128;-62
2023/10/12 00:33:48;;;;;;;14.80;4.32;;;;;;;19.63;59.63;100130.72;5024579;28;20922;-62
2023/10/12 00:36:21;;;;;;;14.85;4.93;;;;;;;19.66;59.51;100115.22;5024547;28;20073;-62
2023/10/12 00:38:51;;;;;;;15.15;4.35;;;;;;;19.67;59.56;100111.53;5010928;28;20174;-63
2023/10/12 00:41:19;;;;;;;9.35;4.50;;;;;;;19.67;59.67;100113.38;5028234;28;20137;-63
2023/10/12 00:51:53;;;;;;;24.15;4.70;;;;;;;19.68;58.80;100126.59;5024751;28;20054;-62
2023/10/12 00:57:09;;;;;;;11.40;4.63;;;;;;;19.67;58.67;100132.91;5025319;28;20752;-62
2023/10/12 00:59:39;;;;;;;19.77;4.75;;;;;;;19.67;58.46;100132.06;5024693;28;20588;-62
2023/10/12 01:02:15;;;;;;;13.35;4.60;;;;;;;19.65;58.32;100126.91;5024612;28;20096;-62
2023/10/12 01:04:52;;;;;;;11.95;4.15;;;;;;;19.68;58.29;100131.94;5021676;28;20108;-62
2023/10/12 01:07:25;;;;;;;11.85;3.53;;;;;;;19.63;58.55;100128.91;5023963;28;20410;-62
2023/10/12 01:10:05;;;;;;;14.82;4.50;;;;;;;19.60;58.76;100115.00;5023772;28;20140;-63
2023/10/12 01:12:34;;;;;;;27.60;5.75;;;;;;;19.55;58.96;100125.34;5022849;28;20077;-62
2023/10/12 01:15:26;;;;;;;14.60;4.38;;;;;;;19.57;58.73;100118.81;5024083;28;20096;-63
2023/10/12 01:17:52;;;;;;;12.02;4.60;;;;;;;19.61;58.72;100117.53;5024339;28;20099;-63
2023/10/12 01:20:26;;;;;;;23.52;5.30;;;;;;;19.58;58.82;100125.00;5022189;28;20099;-62
2023/10/12 01:22:54;;;;;;;14.02;4.35;;;;;;;19.54;59.15;100120.97;5002193;28;20575;-61
2023/10/12 01:25:29;;;;;;;13.65;4.40;;;;;;;19.52;59.27;100125.66;5027855;28;20099;-62
2023/10/12 01:27:57;;;;;;;12.35;3.75;;;;;;;19.43;59.58;100125.59;5037743;28;20061;-62
2023/10/12 01:30:27;;;;;;;13.43;4.32;;;;;;;19.43;59.18;100122.94;5036483;28;20076;-62
2023/10/12 01:32:57;;;;;;;13.73;5.30;;;;;;;19.42;59.47;100118.59;5041997;28;20042;-62
2023/10/12 01:35:38;;;;;;;13.75;4.47;;;;;;;19.42;59.46;100118.59;5028172;28;20572;-62
2023/10/12 01:38:08;;;;;;;16.38;5.22;;;;;;;19.41;59.65;100116.09;5026318;28;20631;-62
2023/10/12 01:41:09;;;;;;;19.00;3.85;;;;;;;19.38;60.04;100103.06;5023358;28;20129;-63
2023/10/12 01:43:30;;;;;;;16.83;4.43;;;;;;;19.34;60.42;100101.72;5019770;28;20057;-62
2023/10/12 01:46:05;;;;;;;13.75;4.60;;;;;;;19.32;60.84;100106.34;5023068;28;20057;-62
2023/10/12 01:48:36;;;;;;;;;;;;;;;19.31;60.87;100107.34;5024164;28;20129;-62
2023/10/12 01:51:14;;;;;;;12.57;4.13;;;;;;;19.29;61.15;100106.69;5024868;28;19921;-62
2023/10/12 01:53:42;;;;;;;20.27;4.70;;;;;;;19.21;61.45;100115.47;5008430;28;20053;-63
2023/10/12 01:56:10;;;;;;;12.65;4.28;;;;;;;19.21;61.93;100110.97;5024376;28;20061;-62
2023/10/12 01:58:40;;;;;;;16.65;4.38;;;;;;;19.16;61.98;100107.97;5022507;28;22053;-62
2023/10/12 02:01:08;;;;;;;18.20;5.28;;;;;;;19.19;62.20;100110.31;5022223;28;20144;-63
2023/10/12 02:03:42;;;;;;;12.65;5.03;;;;;;;19.10;62.53;100111.25;5023692;28;20064;-63
2023/10/12 02:06:16;;;;;;;16.52;4.85;;;;;;;19.06;62.76;100120.56;5020830;28;20050;-63
2023/10/12 02:13:47;;;;;;;17.33;4.97;;;;;;;19.03;63.31;100136.06;5018923;28;20464;-62
2023/10/12 02:16:31;;;;;;;12.40;5.22;;;;;;;18.97;63.59;100130.34;5009686;28;20140;-62
2023/10/12 02:19:04;;;;;;;18.67;4.65;;;;;;;18.92;64.01;100134.50;5024710;28;20714;-63
2023/10/12 02:21:33;;;;;;;15.75;5.57;;;;;;;18.85;64.71;100133.44;5024011;28;20143;-62
2023/10/12 02:34:31;;;;;;;11.15;4.55;;;;;;;18.70;65.72;100133.16;5018184;28;20136;-63
2023/10/12 02:39:41;;;;;;;14.63;4.93;;;;;;;18.65;66.06;100135.41;5025758;28;20377;-63
2023/10/12 02:42:17;;;;;;;13.82;4.63;;;;;;;18.66;66.08;100139.75;5024005;28;20423;-63
2023/10/12 02:47:23;;;;;;;12.65;4.82;;;;;;;18.60;66.31;100143.88;5019715;28;20057;-64
2023/10/12 02:50:00;;;;;;;17.63;5.38;;;;;;;18.55;66.58;100142.66;5022906;28;20076;-64
2023/10/12 02:52:30;;;;;;;13.25;4.93;;;;;;;18.50;66.76;100150.28;5023084;28;20045;-64
2023/10/12 02:55:07;;;;;;;15.27;5.15;;;;;;;18.43;67.34;100174.88;5024538;28;20063;-64
2023/10/12 02:57:34;;;;;;;14.45;5.43;;;;;;;18.39;67.73;100159.34;5005854;28;20107;-64
2023/10/12 03:00:12;;;;;;;12.70;4.88;;;;;;;18.35;68.56;100164.13;5020456;28;20594;-64
2023/10/12 03:02:42;;;;;;;19.17;4.88;;;;;;;18.28;69.06;100159.56;5024382;28;20575;-64
2023/10/12 03:05:10;;;;;;;25.17;5.22;;;;;;;18.20;69.61;100173.66;5024677;28;20046;-62
2023/10/12 03:07:39;;;;;;;17.58;5.35;;;;;;;18.16;70.21;100165.13;5008644;28;20081;-64
2023/10/12 03:10:07;;;;;;;20.52;5.50;;;;;;;18.05;71.29;100181.28;5026156;28;20077;-64
2023/10/12 03:12:35;;;;;;;14.85;4.45;;;;;;;18.03;72.16;100177.94;5023910;28;20078;-62
2023/10/12 03:15:15;;;;;;;15.23;4.60;;;;;;;17.99;72.79;100176.56;5006150;28;20095;-62
2023/10/12 03:17:45;;;;;;;24.15;5.95;;;;;;;17.88;73.80;100182.13;5010575;28;20156;-63
2023/10/12 03:20:35;;;;;;;19.10;5.60;;;;;;;17.89;74.58;100175.78;5024880;28;20128;-63
2023/10/12 03:23:12;;;;;;;20.70;5.72;;;;;;;17.83;75.12;100176.38;5023246;28;20107;-63
2023/10/12 03:25:43;;;;;;;16.17;5.22;;;;;;;17.75;76.23;100184.28;5023618;28;20057;-63
2023/10/12 03:28:29;;;;;;;23.33;5.93;;;;;;;17.63;77.55;100189.75;5021685;28;20148;-63
2023/10/12 03:31:53;;;;;;;21.70;5.65;;;;;;;17.58;78.60;100188.50;5022366;28;20053;-63
2023/10/12 03:33:53;;;;;;;23.58;6.78;;;;;;;17.55;79.33;100184.31;5003491;28;20080;-63
2023/10/12 03:36:36;;;;;;;29.60;6.60;;;;;;;17.47;81.51;100192.19;5028506;28;20132;-63
2023/10/12 03:44:49;;;;;;;19.92;6.85;;;;;;;17.25;85.96;100200.53;5008283;28;20046;-64
2023/10/12 03:52:52;;;;;;;15.27;5.95;;;;;;;17.01;90.46;100217.75;5025982;28;20568;-64
2023/10/12 03:55:28;;;;;;;16.17;6.07;;;;;;;16.91;91.15;100211.63;5027870;28;20162;-63
2023/10/12 03:58:07;;;;;;;19.00;5.47;;;;;;;16.83;91.80;100219.47;5008010;28;20619;-64
2023/10/12 04:00:48;;;;;;;13.75;5.22;;;;;;;16.79;91.64;100213.56;5023709;28;20092;-64
2023/10/12 04:03:19;;;;;;;17.92;5.60;;;;;;;16.62;94.93;100216.94;5009887;28;20555;-64
2023/10/12 04:08:51;;;;;;;14.50;4.82;;;;;;;16.42;98.93;100235.47;4995974;28;20084;-63
2023/10/12 04:14:43;;;;;;;11.93;5.57;;;;;;;16.27;100.00;100228.06;5025572;28;20468;-63
2023/10/12 04:22:35;;;;;;;18.05;6.22;;;;;;;16.13;100.00;100254.03;5025146;28;20072;-64
2023/10/12 04:25:12;;;;;;;18.92;5.97;;;;;;;16.10;100.00;100250.78;5008460;28;20456;-63
2023/10/12 04:27:52;;;;;;;10.75;5.65;;;;;;;16.02;100.00;100243.50;5024967;28;20056;-65
2023/10/12 04:31:20;;;;;;;12.27;6.68;;;;;;;15.91;100.00;100244.44;5025392;28;20046;-64
2023/10/12 04:43:39;;;;;;;8.68;2.88;;;;;;;15.45;100.00;100253.69;5026954;28;20186;-64
2023/10/12 04:48:46;;;;;;;5.93;2.83;;;;;;;15.32;100.00;100249.56;5008315;28;20204;-63
2023/10/12 04:51:19;;;;;;;6.97;3.80;;;;;;;15.15;100.00;100245.66;5027313;28;20100;-62
2023/10/12 04:54:05;;;;;;;7.18;4.15;;;;;;;15.14;100.00;100252.78;5027493;28;20057;-64
2023/10/12 04:56:36;;;;;;;8.48;3.78;;;;;;;15.13;100.00;100248.47;5024821;28;20540;-64
2023/10/12 04:59:15;;;;;;;5.40;3.10;;;;;;;15.11;100.00;100250.38;5022984;28;20075;-63
2023/10/12 05:02:16;;;;;;;8.02;3.88;;;;;;;15.12;100.00;100249.41;5022772;28;20054;-63
2023/10/12 05:09:39;;;;;;;8.05;3.25;;;;;;;14.94;100.00;100258.91;5027503;28;20212;-63
2023/10/12 05:12:07;;;;;;;8.32;3.22;;;;;;;14.91;100.00;100269.78;5019554;28;20157;-63
2023/10/12 05:14:34;;;;;;;7.32;3.53;;;;;;;14.87;100.00;100271.00;5024745;28;20081;-63
2023/10/12 05:17:01;;;;;;;8.07;3.35;;;;;;;14.80;100.00;100261.84;5024531;28;20133;-63
2023/10/12 05:19:29;;;;;;;5.90;3.78;;;;;;;14.80;100.00;100257.38;5027245;28;20144;-63
2023/10/12 05:21:58;;;;;;;7.75;3.42;;;;;;;14.79;100.00;100266.31;5024320;28;20077;-63
2023/10/12 05:24:26;;;;;;;12.63;3.55;;;;;;;14.66;100.00;100255.03;5022491;28;20553;-63
2023/10/12 05:27:09;;;;;;;10.75;4.20;;;;;;;14.60;100.00;100268.78;5025481;28;20129;-63
2023/10/12 05:29:45;;;;;;;10.38;3.58;;;;;;;14.58;100.00;100268.91;5023687;28;20100;-62
2023/10/12 05:34:46;;;;;;;7.95;3.70;;;;;;;14.62;100.00;100280.09;5027271;28;19929;-62
2023/10/12 05:39:47;;;;;;;9.20;4.18;;;;;;;14.64;100.00;100267.59;5030351;28;20092;-62
2023/10/12 05:42:15;;;;;;;10.00;3.90;;;;;;;14.56;100.00;100267.34;5028714;28;20111;-62
2023/10/12 05:44:43;;;;;;;10.30;4.38;;;;;;;14.51;100.00;100270.38;5035254;28;20057;-62
2023/10/12 05:47:13;;;;;;;8.90;4.03;;;;;;;14.51;100.00;100275.69;5027305;28;20048;-62
2023/10/12 05:49:41;;;;;;;8.70;4.57;;;;;;;14.54;100.00;100278.06;5033745;28;20065;-63
2023/10/12 05:52:10;;;;;;;12.05;5.15;;;;;;;14.52;100.00;100287.94;5030428;28;20128;-61
2023/10/12 05:54:38;;;;;;;12.52;5.60;;;;;;;14.48;100.00;100283.84;5011246;28;20077;-61
2023/10/12 05:57:17;;;;;;;11.50;5.20;;;;;;;14.48;100.00;100283.00;5021438;28;20053;-60
2023/10/12 05:59:46;;;;;;;15.57;5.78;;;;;;;14.47;100.00;100278.66;5025552;28;20042;-59
2023/10/12 06:02:17;;;;;;;17.55;6.18;;;;;;;14.46;100.00;100292.88;5010762;28;20794;-61
2023/10/12 06:04:45;;;;;;;10.20;5.38;;;;;;;14.48;100.00;100313.00;5025194;28;20087;-61
2023/10/12 06:07:12;;;;;;;11.68;5.78;;;;;;;14.44;100.00;100315.00;5011292;28;20107;-62
2023/10/12 06:09:40;;;;;;;18.85;6.75;;;;;;;14.47;100.00;100307.81;5022439;28;20058;-61
2023/10/12 06:12:09;;;;;;;16.27;7.50;;;;;;;14.48;100.00;100285.63;5017368;28;20075;-62
2023/10/12 06:14:38;;;;;;;18.40;7.22;;;;;;;14.51;100.00;100291.56;5027758;28;20443;-63
2023/10/12 06:17:06;;;;;;;11.52;6.60;;;;;;;14.57;100.00;100319.38;5014351;28;20045;-60
2023/10/12 06:19:34;;;;;;;11.82;6.57;;;;;;;14.60;100.00;100337.66;5026761;28;20551;-62
2023/10/12 06:22:23;;;;;;;12.73;6.88;;;;;;;14.63;100.00;100356.81;5023930;28;20049;-60
2023/10/12 06:24:52;;;;;;;16.85;7.65;;;;;;;14.67;100.00;100346.78;5018607;28;20085;-58
2023/10/12 06:29:48;;;;;;;16.42;8.13;;;;;;;14.65;100.00;100349.56;5025149;28;20049;-61
2023/10/12 06:32:34;;;;;;;16.30;7.40;;;;;;;14.61;100.00;100357.88;5025594;28;20123;-62
2023/10/12 06:35:13;;;;;;;17.30;7.90;;;;;;;14.64;100.00;100339.13;5021805;28;20534;-61
2023/10/12 06:45:51;;;;;;;14.35;8.60;;;;;;;14.73;100.00;100370.16;5038107;28;20092;-62
2023/10/12 06:51:10;;;;;;;14.90;8.93;;;;;;;14.84;100.00;100378.06;5031850;28;20179;-62
2023/10/12 06:53:40;;;;;;;19.98;8.20;;;;;;;14.86;100.00;100370.88;5026320;28;20160;-61
2023/10/12 06:58:43;;;;;;;15.70;8.20;;;;;;;14.93;100.00;100408.31;5025987;28;20141;-61
2023/10/12 07:01:32;;;;;;;23.05;8.40;;;;;;;14.94;100.00;100410.81;5024788;28;20138;-61
2023/10/12 07:03:59;;;;;;;17.30;10.38;;;;;;;14.90;100.00;100397.94;5022749;28;20563;-62
2023/10/12 07:06:28;;;;;;;18.27;9.90;;;;;;;14.86;100.00;100407.09;5028260;28;20108;-61
2023/10/12 07:08:56;;;;;;;20.17;10.60;;;;;;;14.85;100.00;100413.38;5005586;28;20080;-60
2023/10/12 07:11:24;;;;;;;16.60;10.82;;;;;;;14.79;100.00;100413.88;5023438;28;20049;-60
2023/10/12 07:13:52;;;;;;;22.02;10.82;;;;;;;14.77;100.00;100419.31;5028231;28;20057;-61
2023/10/12 07:16:21;;;;;;;15.48;10.13;;;;;;;14.83;100.00;100425.91;5021066;28;20054;-61
2023/10/12 07:18:49;;;;;;;20.17;11.95;;;;;;;14.80;100.00;100431.44;5029275;28;20080;-62
2023/10/12 07:21:31;;;;;;;23.52;11.60;;;;;;;14.79;100.00;100422.66;5011193;28;20144;-62
2023/10/12 07:23:58;;;;;;;24.73;11.77;;;;;;;14.80;100.00;100427.00;5029629;28;20076;-61
2023/10/12 07:26:26;;;;;;;18.90;11.13;;;;;;;14.83;100.00;100440.00;5025619;28;20136;-63
2023/10/12 07:28:55;;;;;;;18.27;10.93;;;;;;;14.82;100.00;100440.13;5021273;28;20053;-61
2023/10/12 07:36:52;;;;;;;20.42;11.23;;;;;;;14.89;100.00;100450.09;5027111;28;20433;-59
2023/10/12 07:39:38;;;;;;;23.30;12.57;;;;;;;14.85;100.00;100451.31;5028290;28;20057;-61
2023/10/12 07:42:01;;;;;;;17.35;9.82;;;;;;;14.86;100.00;100458.31;5026494;28;20137;-61
2023/10/12 07:47:41;;;;;;;13.95;8.68;;;;;;;14.90;100.00;100466.84;5019050;28;20045;-63
2023/10/12 07:50:25;;;;;;;12.38;8.23;;;;;;;14.84;100.00;100477.94;5026112;28;20080;-62
2023/10/12 07:53:06;;;;;;;9.57;5.95;;;;;;;14.79;100.00;100477.47;5025416;28;20053;-62
2023/10/12 07:55:41;;;;;;;11.55;5.82;;;;;;;14.81;100.00;100499.38;5025314;28;20081;-62
2023/10/12 07:58:12;;;;;;;3.58;2.42;;;;;;;14.66;100.00;100504.09;5024371;28;20460;-62
2023/10/12 08:00:51;;;;;;;4.05;1.90;;;;;;;14.41;100.00;100507.78;5026200;28;20578;-62
2023/10/12 08:03:24;;;;;;;2.85;1.50;;;;;;;14.25;100.00;100525.78;5024222;28;20394;-62
2023/10/12 08:06:07;;;;;;;5.80;1.95;;;;;;;14.09;100.00;100526.91;5025744;28;20054;-61
2023/10/12 08:08:35;;;;;;;3.92;1.83;;;;;;;14.01;100.00;100544.34;5024133;28;20153;-62
2023/10/12 08:11:49;;;;;;;5.30;1.40;;;;;;;14.02;100.00;100549.53;5025066;28;20128;-62
2023/10/12 08:13:54;;;;;;;5.28;1.90;;;;;;;13.86;100.00;100548.97;5006770;28;20582;-62
2023/10/12 08:16:26;;;;;;;6.57;2.25;;;;;;;13.89;100.00;100564.63;5025004;28;20088;-62
2023/10/12 08:21:37;;;;;;;6.55;1.85;;;;;;;13.64;100.00;100574.38;5024233;28;20096;-62
2023/10/12 08:32:03;;;;;;;11.05;1.90;;;;;;;13.84;100.00;100582.66;5028159;28;20144;-63
2023/10/12 08:37:20;;;;;;;9.02;2.38;;;;;;;14.04;100.00;100603.19;5030099;28;20045;-62
2023/10/12 08:39:58;;;;;;;15.55;2.42;;;;;;;14.05;100.00;100602.25;5029885;28;20500;-61
2023/10/12 08:45:15;;;;;;;14.40;2.63;;;;;;;13.94;100.00;100624.19;5021833;28;22057;-63
2023/10/12 08:47:48;;;;;;;10.30;2.53;;;;;;;13.71;100.00;100624.19;5013761;28;20060;-63
2023/10/12 08:52:50;;;;;;;13.52;2.80;;;;;;;13.68;100.00;100641.09;5024397;28;20092;-62
2023/10/12 08:55:19;;;;;;;8.73;2.33;;;;;;;13.70;100.00;100638.38;5027052;28;20061;-61
2023/10/12 08:57:55;;;;;;;17.50;3.67;;;;;;;13.73;100.00;100632.84;5029469;28;20160;-59
2023/10/12 09:05:51;;;;;;;13.23;3.30;;;;;;;13.83;100.00;100636.53;5022393;28;20140;-60
2023/10/12 09:10:51;;;;;;;13.02;2.63;;;;;;;13.67;100.00;100642.91;5024418;28;20136;-63
2023/10/12 09:13:19;;;;;;;13.27;2.50;;;;;;;13.77;100.00;100642.25;5022940;28;20136;-61
2023/10/12 09:15:49;;;;;;;11.55;2.17;;;;;;;13.84;100.00;100633.75;5022295;28;20107;-61
2023/10/12 09:18:17;;;;;;;15.63;2.90;;;;;;;14.08;100.00;100641.72;5002046;28;20540;-62
2023/10/12 09:23:38;;;;;;;10.48;3.10;;;;;;;14.27;100.00;100648.28;5026868;28;20050;-61
2023/10/12 09:36:53;;;;;;;10.63;2.20;;;;;;;14.56;100.00;100651.47;5019710;28;20088;-60
2023/10/12 09:39:27;;;;;;;14.65;3.30;;;;;;;14.46;100.00;100651.28;5022646;28;20146;-59
2023/10/12 09:42:09;;;;;;;21.27;4.03;;;;;;;14.60;100.00;100658.22;5026592;28;20072;-61
2023/10/12 09:44:40;;;;;;;14.48;3.10;;;;;;;14.55;100.00;100661.22;5024623;28;20957;-61
2023/10/12 09:47:12;;;;;;;13.20;3.03;;;;;;;14.41;99.72;100661.38;5024749;28;20119;-62
2023/10/12 09:49:54;;;;;;;12.50;2.72;;;;;;;14.37;100.00;100662.56;5018952;28;20054;-62
2023/10/12 09:52:24;;;;;;;15.63;3.15;;;;;;;14.50;100.00;100658.09;5026460;28;20077;-62
2023/10/12 09:55:06;;;;;;;11.38;2.75;;;;;;;14.50;99.95;100654.56;5022658;28;20077;-62
2023/10/12 09:57:36;;;;;;;11.32;2.60;;;;;;;14.50;99.87;100660.72;5028231;28;20056;-62
2023/10/12 10:00:27;;;;;;;16.08;3.40;;;;;;;14.50;98.67;100659.84;5027450;28;20050;-62
2023/10/12 10:02:55;;;;;;;11.27;2.70;;;;;;;14.66;98.51;100652.47;5022296;28;20512;-61
2023/10/12 10:07:57;;;;;;;10.23;2.30;;;;;;;14.93;95.64;100657.47;5004201;28;20042;-61
2023/10/12 10:10:32;;;;;;;18.38;3.28;;;;;;;14.86;94.01;100653.59;5006815;28;20080;-60
2023/10/12 10:13:00;;;;;;;9.98;2.58;;;;;;;14.94;94.58;100651.19;5030596;28;20423;-62
2023/10/12 10:15:44;;;;;;;14.05;3.15;;;;;;;14.63;97.13;100657.97;5023788;28;20104;-62
2023/10/12 10:18:15;;;;;;;16.60;2.88;;;;;;;14.66;94.09;100655.09;5027104;28;20092;-62
2023/10/12 10:20:56;;;;;;;13.70;2.95;;;;;;;14.51;95.30;100653.63;5028413;28;20478;-63
2023/10/12 10:23:24;;;;;;;13.07;3.45;;;;;;;14.66;93.99;100650.66;5023221;28;20050;-61
2023/10/12 10:25:56;;;;;;;13.23;3.53;;;;;;;14.63;94.78;100655.34;5021247;28;20057;-61
2023/10/12 10:28:29;;;;;;;9.77;2.38;;;;;;;14.94;92.79;100656.50;5018458;28;20111;-62
2023/10/12 10:30:59;;;;;;;14.73;3.10;;;;;;;14.99;92.40;100658.78;5007855;28;20142;-61
2023/10/12 10:33:28;;;;;;;9.98;2.17;;;;;;;15.08;91.11;100653.63;5025773;28;20124;-63
2023/10/12 10:35:56;;;;;;;14.88;2.88;;;;;;;15.02;92.15;100656.75;5028276;28;20049;-60
2023/10/12 10:38:30;;;;;;;10.75;2.63;;;;;;;15.02;91.28;100655.91;5020988;28;20077;-64
2023/10/12 10:41:17;;;;;;;14.43;2.80;;;;;;;14.82;91.84;100660.09;5021090;28;20073;-61
2023/10/12 10:43:46;;;;;;;12.70;2.88;;;;;;;14.51;94.50;100664.22;5027169;28;20518;-62
2023/10/12 10:46:17;;;;;;;11.82;3.35;;;;;;;14.54;94.83;100669.28;5024269;28;20464;-63
2023/10/12 10:48:49;;;;;;;14.40;2.70;;;;;;;14.53;95.25;100663.13;5021751;28;20069;-61
2023/10/12 10:51:42;;;;;;;9.25;2.50;;;;;;;14.46;94.87;100658.41;5017640;28;20075;-61
2023/10/12 10:54:18;;;;;;;14.73;3.22;;;;;;;14.50;94.70;100655.44;5021843;28;20137;-62
2023/10/12 10:56:49;;;;;;;15.50;3.00;;;;;;;14.49;95.51;100668.78;5026257;28;20052;-62
2023/10/12 10:59:20;;;;;;;20.90;3.00;;;;;;;14.42;95.00;100671.84;5025236;28;20471;-62
2023/10/12 11:01:50;;;;;;;14.75;3.45;;;;;;;14.42;95.36;100673.66;5005150;28;20095;-63
2023/10/12 11:04:41;;;;;;;12.60;2.95;;;;;;;14.46;94.99;100669.81;5006001;28;20085;-61
2023/10/12 11:07:11;;;;;;;18.35;3.03;;;;;;;14.46;92.97;100669.00;5019212;28;20069;-62
2023/10/12 11:10:31;;;;;;;10.90;2.75;;;;;;;14.66;92.38;100653.31;5027850;28;20046;-61
2023/10/12 11:12:36;;;;;;;14.82;3.72;;;;;;;14.86;91.01;100658.88;5019139;28;20140;-63
2023/10/12 11:15:09;;;;;;;26.58;3.72;;;;;;;15.17;90.09;100652.94;5000769;28;20077;-62
2023/10/12 11:17:41;;;;;;;11.63;3.22;;;;;;;15.29;90.16;100655.59;5024373;28;20085;-62
2023/10/12 11:20:43;;;;;;;12.65;2.58;;;;;;;15.31;89.39;100654.50;5001859;28;20088;-62
2023/10/12 11:23:13;;;;;;;13.27;2.55;;;;;;;15.11;91.27;100657.84;5024136;28;20065;-63
2023/10/12 11:25:41;;;;;;;14.68;2.97;;;;;;;15.13;91.13;100650.63;5010579;28;20403;-62
2023/10/12 11:28:21;;;;;;;9.43;2.17;;;;;;;15.50;91.19;100650.41;5025409;28;20115;-62
2023/10/12 11:31:03;;;;;;;11.27;2.92;;;;;;;15.61;89.75;100653.03;5024086;28;20504;-63
2023/10/12 11:33:31;;;;;;;16.95;2.80;;;;;;;15.79;89.83;100650.75;5009612;28;20136;-62
2023/10/12 11:36:03;;;;;;;12.43;2.53;;;;;;;15.97;87.47;100651.09;5024738;28;20512;-63
2023/10/12 11:38:31;;;;;;;14.73;2.92;;;;;;;15.82;87.24;100642.56;5024188;28;20138;-62
2023/10/12 11:41:11;;;;;;;19.15;3.72;;;;;;;15.40;87.26;100650.25;5025742;28;20620;-62
2023/10/12 11:43:52;;;;;;;16.10;2.90;;;;;;;15.57;86.70;100649.78;5023210;28;20049;-62
2023/10/12 11:46:24;;;;;;;13.88;3.17;;;;;;;15.38;85.82;100642.44;5005207;28;20057;-61
2023/10/12 11:49:11;;;;;;;12.55;2.75;;;;;;;15.48;86.25;100645.22;5028003;28;20050;-61
2023/10/12 11:51:40;;;;;;;15.70;2.78;;;;;;;15.22;86.81;100659.66;5031928;28;20097;-62
2023/10/12 11:54:19;;;;;;;19.08;2.90;;;;;;;15.33;86.80;100652.56;5025053;28;20058;-62
2023/10/12 11:56:49;;;;;;;17.20;3.25;;;;;;;15.42;86.15;100662.47;5028903;28;20060;-63
2023/10/12 11:59:25;;;;;;;18.23;3.22;;;;;;;15.29;86.20;100653.78;5028391;28;20073;-62
2023/10/12 12:01:55;;;;;;;12.65;3.00;;;;;;;15.02;85.70;100655.91;5030392;28;20565;-61
2023/10/12 12:04:39;;;;;;;12.10;2.63;;;;;;;15.07;86.76;100661.69;5029310;28;20427;-62
2023/10/12 12:07:23;;;;;;;12.43;2.58;;;;;;;15.23;85.64;100656.91;5039277;28;20396;-63
2023/10/12 12:09:53;;;;;;;14.63;2.60;;;;;;;15.29;86.45;100653.78;5040071;28;20080;-62
2023/10/12 12:12:20;;;;;;;10.57;2.30;;;;;;;15.26;85.54;100663.78;5035743;28;20570;-62
2023/10/12 12:14:47;;;;;;;25.90;3.05;;;;;;;15.58;83.86;100667.41;5021423;28;20045;-63
2023/10/12 12:17:18;;;;;;;14.25;2.90;;;;;;;15.70;83.10;100665.59;5029915;28;20136;-62
2023/10/12 12:19:45;;;;;;;10.75;2.70;;;;;;;15.80;82.94;100666.56;5028709;28;20077;-60
2023/10/12 12:22:15;;;;;;;13.32;2.67;;;;;;;15.80;83.00;100665.72;5025786;28;20080;-62
2023/10/12 12:24:45;;;;;;;12.65;3.50;;;;;;;15.68;83.14;100659.59;5029471;28;20092;-62
2023/10/12 12:27:37;;;;;;;15.38;3.08;;;;;;;15.64;83.70;100666.94;5010977;28;20096;-62
2023/10/12 12:30:00;;;;;;;15.02;3.58;;;;;;;15.46;85.18;100668.38;5028807;28;20107;-61
2023/10/12 12:32:49;;;;;;;11.85;2.75;;;;;;;15.40;85.05;100664.41;5029853;28;20045;-63
2023/10/12 12:35:16;;;;;;;13.68;3.10;;;;;;;15.50;85.49;100667.16;5026347;28;20104;-62
2023/10/12 12:37:43;;;;;;;14.73;3.33;;;;;;;15.75;84.60;100654.63;5027136;28;20574;-62
2023/10/12 12:42:54;;;;;;;16.17;3.55;;;;;;;16.07;81.00;100657.34;5024324;28;20053;-62
2023/10/12 12:45:21;;;;;;;12.55;2.95;;;;;;;16.37;80.27;100662.78;5025017;28;20672;-61
2023/10/12 12:47:48;;;;;;;14.98;2.50;;;;;;;17.14;78.17;100657.19;5027864;28;20122;-62
2023/10/12 12:50:16;;;;;;;8.45;2.53;;;;;;;17.14;77.48;100653.72;5021314;28;20129;-63
2023/10/12 12:52:43;;;;;;;14.80;2.92;;;;;;;17.59;75.58;100661.31;5025818;28;20512;-62
2023/10/12 12:55:11;;;;;;;10.63;2.58;;;;;;;17.27;75.45;100666.78;5023814;28;20144;-62
2023/10/12 12:57:39;;;;;;;10.55;2.42;;;;;;;17.28;75.67;100666.66;5026107;28;20108;-63
2023/10/12 13:00:08;;;;;;;13.60;2.95;;;;;;;17.30;71.68;100663.88;5029278;28;20065;-62
2023/10/12 13:02:38;;;;;;;9.10;2.40;;;;;;;17.60;71.97;100669.16;5011583;28;20081;-63
2023/10/12 13:05:07;;;;;;;11.30;2.38;;;;;;;17.52;71.72;100665.53;5027507;28;20053;-62
2023/10/12 13:07:35;;;;;;;15.48;2.70;;;;;;;17.28;73.30;100671.13;5020186;28;20558;-62
2023/10/12 13:10:02;;;;;;;15.63;3.03;;;;;;;17.51;73.28;100675.31;5024127;28;20435;-62
2023/10/12 13:12:31;;;;;;;15.10;2.88;;;;;;;17.77;72.68;100678.38;5020400;28;20084;-61
2023/10/12 13:15:02;;;;;;;13.98;3.35;;;;;;;17.70;72.84;100671.88;5028785;28;20099;-61
2023/10/12 13:17:32;;;;;;;11.07;2.70;;;;;;;17.98;72.52;100677.47;5022666;28;20049;-62
2023/10/12 13:19:59;;;;;;;8.88;2.78;;;;;;;17.15;76.27;100677.50;5022391;28;20073;-60
2023/10/12 13:22:27;;;;;;;12.93;3.63;;;;;;;17.76;76.13;100691.84;5019988;28;20145;-62
2023/10/12 13:24:56;;;;;;;14.50;2.70;;;;;;;18.42;73.72;100684.97;5024976;28;20503;-62
2023/10/12 13:27:28;;;;;;;11.77;2.63;;;;;;;19.50;72.32;100686.50;5027540;28;20088;-62
2023/10/12 13:30:00;;;;;;;11.23;2.53;;;;;;;19.97;68.04;100681.09;5019424;28;20381;-63
2023/10/12 13:32:27;;;;;;;11.60;2.78;;;;;;;20.24;67.84;100685.56;5010082;28;20079;-62
2023/10/12 13:34:57;;;;;;;10.25;2.90;;;;;;;21.24;64.22;100682.56;5027775;28;20076;-63
2023/10/12 13:37:30;;;;;;;16.15;2.80;;;;;;;21.04;60.94;100681.09;5026965;28;20073;-63
2023/10/12 13:39:58;;;;;;;10.43;2.17;;;;;;;22.32;58.40;100679.34;5027959;28;20099;-63
2023/10/12 13:42:28;;;;;;;9.20;2.53;;;;;;;22.16;56.27;100678.31;5025564;28;20081;-61
2023/10/12 13:44:56;;;;;;;10.23;2.55;;;;;;;21.83;56.92;100676.50;5027080;28;20115;-63
2023/10/12 13:47:25;;;;;;;11.18;2.83;;;;;;;21.30;58.23;100682.91;5024223;28;20077;-63
2023/10/12 13:49:54;;;;;;;10.07;2.90;;;;;;;20.46;60.04;100685.09;5024058;28;20372;-63
2023/10/12 13:52:21;;;;;;;7.95;2.10;;;;;;;19.66;60.98;100678.72;5026529;28;20455;-63
2023/10/12 13:54:52;;;;;;;9.07;2.60;;;;;;;18.94;63.22;100680.16;5026614;28;20058;-62
2023/10/12 13:57:19;;;;;;;13.50;2.75;;;;;;;18.62;64.51;100683.13;5027928;28;20076;-63
2023/10/12 13:59:47;;;;;;;8.57;2.10;;;;;;;18.13;67.29;100679.59;5026422;28;20132;-62
2023/10/12 14:02:14;;;;;;;11.52;2.67;;;;;;;17.61;69.49;100681.53;5026175;28;20589;-62
2023/10/12 14:04:42;;;;;;;16.77;3.20;;;;;;;17.34;70.79;100681.28;5023296;28;20074;-62
2023/10/12 14:07:09;;;;;;;10.07;2.42;;;;;;;17.24;70.88;100675.03;5024313;28;20099;-62
2023/10/12 14:09:39;;;;;;;8.93;2.50;;;;;;;16.89;73.12;100670.94;5026781;28;20500;-62